createdAt,value
2023-08-31T00:00:58.426Z,3.20
2023-08-31T00:01:58.417Z,2.60
2023-08-31T00:02:58.514Z,3.70
2023-08-31T00:03:58.464Z,3.20
2023-08-31T00:04:58.433Z,3.10
2023-08-31T00:05:58.395Z,3.20
2023-08-31T00:06:58.388Z,5.20
2023-08-31T00:07:58.382Z,3.40
2023-08-31T00:08:58.422Z,4.70
2023-08-31T00:09:58.378Z,3.20
2023-08-31T00:10:58.367Z,3.60
2023-08-31T00:11:58.366Z,3.30
2023-08-31T00:12:58.359Z,4.90
2023-08-31T00:13:58.356Z,3.50
2023-08-31T00:14:58.350Z,3.90
2023-08-31T00:15:58.529Z,4.40
2023-08-31T00:16:58.346Z,3.50
2023-08-31T00:17:58.403Z,4.40
2023-08-31T00:18:58.342Z,4.10
2023-08-31T00:19:58.326Z,3.10
2023-08-31T00:20:58.323Z,3.20
2023-08-31T00:21:58.320Z,3.30
2023-08-31T00:22:58.314Z,3.10
2023-08-31T00:23:58.310Z,4.20
2023-08-31T00:24:58.310Z,3.70
2023-08-31T00:25:58.320Z,4.60
2023-08-31T00:26:58.296Z,3.20
2023-08-31T00:27:58.288Z,3.50
2023-08-31T00:28:58.280Z,5.00
2023-08-31T00:29:58.280Z,3.90
2023-08-31T00:30:58.294Z,3.50
2023-08-31T00:31:58.274Z,3.60
2023-08-31T00:32:58.278Z,3.20
2023-08-31T00:33:58.263Z,3.30
2023-08-31T00:34:58.255Z,4.00
2023-08-31T00:35:58.248Z,3.50
2023-08-31T00:36:58.244Z,3.50
2023-08-31T00:37:58.243Z,4.40
2023-08-31T00:38:58.233Z,3.30
2023-08-31T00:39:58.228Z,4.10
2023-08-31T00:40:58.225Z,3.70
2023-08-31T00:41:58.219Z,4.40
2023-08-31T00:42:58.216Z,4.30
2023-08-31T00:43:58.209Z,4.30
2023-08-31T00:44:58.215Z,3.70
2023-08-31T00:45:58.219Z,4.20
2023-08-31T00:46:58.192Z,3.50
2023-08-31T00:47:58.215Z,5.50
2023-08-31T00:48:58.182Z,5.00
2023-08-31T00:49:58.205Z,4.00
2023-08-31T00:50:58.184Z,4.80
2023-08-31T00:51:58.187Z,4.40
2023-08-31T00:52:58.168Z,4.90
2023-08-31T00:53:58.158Z,4.30
2023-08-31T00:54:58.156Z,5.50
2023-08-31T00:55:58.163Z,4.20
2023-08-31T00:56:58.139Z,5.20
2023-08-31T00:57:58.140Z,4.60
2023-08-31T00:58:58.148Z,4.60
2023-08-31T00:59:58.130Z,5.00
2023-08-31T01:00:58.125Z,4.90
2023-08-31T01:01:58.197Z,5.00
2023-08-31T01:02:58.221Z,5.20
2023-08-31T01:03:58.210Z,4.80
2023-08-31T01:04:58.106Z,4.50
2023-08-31T01:05:58.101Z,5.10
2023-08-31T01:06:58.096Z,5.30
2023-08-31T01:07:58.091Z,5.20
2023-08-31T01:08:58.158Z,5.30
2023-08-31T01:09:58.082Z,6.30
2023-08-31T01:10:58.074Z,5.30
2023-08-31T01:11:58.070Z,5.80
2023-08-31T01:12:58.073Z,5.40
2023-08-31T01:13:58.086Z,5.40
2023-08-31T01:14:58.056Z,5.00
2023-08-31T01:15:58.090Z,5.90
2023-08-31T01:16:58.051Z,5.50
2023-08-31T01:17:58.097Z,5.80
2023-08-31T01:18:58.034Z,6.10
2023-08-31T01:19:58.039Z,5.70
2023-08-31T01:20:58.036Z,5.90
2023-08-31T01:21:58.021Z,5.90
2023-08-31T01:22:58.020Z,5.30
2023-08-31T01:23:58.048Z,5.10
2023-08-31T01:24:58.009Z,5.80
2023-08-31T01:25:58.002Z,5.40
2023-08-31T01:26:57.996Z,6.40
2023-08-31T01:27:57.988Z,5.40
2023-08-31T01:28:57.986Z,5.70
2023-08-31T01:29:57.989Z,5.70
2023-08-31T01:30:57.976Z,5.20
2023-08-31T01:31:58.000Z,5.20
2023-08-31T01:32:57.988Z,7.80
2023-08-31T01:33:57.964Z,5.20
2023-08-31T01:34:57.956Z,5.50
2023-08-31T01:35:57.953Z,5.10
2023-08-31T01:36:57.968Z,5.00
2023-08-31T01:37:57.941Z,5.20
2023-08-31T01:38:57.933Z,5.30
2023-08-31T01:39:57.930Z,5.50
2023-08-31T01:40:57.926Z,6.50
2023-08-31T01:41:57.928Z,5.20
2023-08-31T01:42:57.913Z,5.20
2023-08-31T01:43:57.907Z,5.20
2023-08-31T01:44:57.903Z,5.20
2023-08-31T01:45:57.970Z,3.40
2023-08-31T01:46:57.891Z,4.50
2023-08-31T01:47:57.919Z,3.00
2023-08-31T01:48:57.882Z,3.10
2023-08-31T01:49:57.880Z,3.20
2023-08-31T01:50:57.875Z,3.00
2023-08-31T01:51:57.869Z,3.20
2023-08-31T01:52:57.868Z,2.90
2023-08-31T01:53:57.859Z,3.00
2023-08-31T01:54:57.853Z,2.80
2023-08-31T01:55:57.849Z,2.60
2023-08-31T01:56:57.842Z,3.20
2023-08-31T01:57:57.836Z,2.90
2023-08-31T01:58:57.830Z,2.80
2023-08-31T01:59:57.827Z,2.50
2023-08-31T02:00:57.954Z,2.80
2023-08-31T02:01:57.824Z,2.50
2023-08-31T02:02:57.872Z,2.70
2023-08-31T02:03:57.806Z,2.80
2023-08-31T02:04:57.800Z,2.60
2023-08-31T02:05:57.796Z,2.80
2023-08-31T02:06:57.801Z,2.60
2023-08-31T02:07:57.783Z,2.90
2023-08-31T02:08:57.780Z,2.50
2023-08-31T02:09:57.775Z,3.00
2023-08-31T02:10:57.773Z,3.00
2023-08-31T02:11:57.774Z,2.40
2023-08-31T02:12:57.762Z,2.40
2023-08-31T02:13:57.755Z,2.60
2023-08-31T02:14:57.746Z,2.80
2023-08-31T02:15:57.777Z,2.60
2023-08-31T02:16:57.738Z,2.50
2023-08-31T02:17:57.779Z,2.40
2023-08-31T02:18:57.725Z,2.70
2023-08-31T02:19:57.719Z,2.40
2023-08-31T02:20:57.716Z,2.40
2023-08-31T02:21:57.710Z,2.50
2023-08-31T02:22:57.701Z,2.40
2023-08-31T02:23:57.699Z,2.50
2023-08-31T02:24:57.692Z,2.20
2023-08-31T02:25:57.717Z,2.60
2023-08-31T02:26:57.680Z,2.40
2023-08-31T02:27:57.677Z,3.60
2023-08-31T02:28:57.675Z,3.30
2023-08-31T02:29:57.673Z,2.30
2023-08-31T02:30:57.682Z,2.10
2023-08-31T02:31:57.659Z,2.80
2023-08-31T02:32:57.685Z,2.40
2023-08-31T02:33:57.644Z,2.50
2023-08-31T02:34:57.634Z,2.30
2023-08-31T02:35:57.649Z,3.60
2023-08-31T02:36:57.638Z,2.40
2023-08-31T02:37:57.618Z,2.50
2023-08-31T02:38:57.613Z,2.60
2023-08-31T02:39:57.610Z,2.20
2023-08-31T02:40:57.613Z,2.70
2023-08-31T02:41:57.598Z,2.40
2023-08-31T02:42:57.597Z,2.60
2023-08-31T02:43:57.587Z,2.90
2023-08-31T02:44:57.595Z,2.80
2023-08-31T02:45:57.577Z,3.00
2023-08-31T02:46:57.568Z,2.60
2023-08-31T02:47:57.649Z,2.40
2023-08-31T02:48:57.611Z,2.80
2023-08-31T02:49:57.553Z,2.20
2023-08-31T02:50:57.550Z,2.50
2023-08-31T02:51:57.544Z,2.70
2023-08-31T02:52:57.543Z,2.40
2023-08-31T02:53:57.532Z,2.20
2023-08-31T02:54:57.528Z,2.40
2023-08-31T02:55:57.520Z,2.60
2023-08-31T02:56:57.516Z,3.60
2023-08-31T02:57:57.508Z,2.60
2023-08-31T02:58:57.507Z,3.50
2023-08-31T02:59:57.503Z,2.50
2023-08-31T03:00:57.514Z,2.60
2023-08-31T03:01:57.528Z,2.80
2023-08-31T03:02:57.492Z,2.90
2023-08-31T03:03:57.475Z,2.80
2023-08-31T03:04:57.469Z,2.90
2023-08-31T03:05:57.465Z,3.00
2023-08-31T03:06:57.460Z,3.10
2023-08-31T03:07:57.451Z,3.90
2023-08-31T03:08:57.449Z,2.40
2023-08-31T03:09:57.440Z,2.60
2023-08-31T03:10:57.446Z,2.90
2023-08-31T03:11:57.436Z,3.20
2023-08-31T03:12:57.425Z,3.00
2023-08-31T03:13:57.435Z,2.30
2023-08-31T03:14:57.412Z,2.40
2023-08-31T03:15:57.409Z,2.80
2023-08-31T03:16:57.403Z,2.70
2023-08-31T03:17:58.104Z,2.90
2023-08-31T03:18:57.388Z,2.80
2023-08-31T03:19:57.389Z,2.80
2023-08-31T03:20:57.380Z,2.70
2023-08-31T03:21:57.382Z,2.80
2023-08-31T03:22:57.377Z,3.70
2023-08-31T03:23:57.364Z,3.10
2023-08-31T03:24:57.356Z,3.00
2023-08-31T03:25:57.374Z,3.40
2023-08-31T03:26:57.343Z,3.40
2023-08-31T03:27:57.340Z,2.60
2023-08-31T03:28:57.343Z,3.10
2023-08-31T03:29:57.330Z,3.10
2023-08-31T03:30:57.425Z,2.30
2023-08-31T03:31:57.318Z,3.40
2023-08-31T03:32:57.317Z,2.50
2023-08-31T03:33:57.328Z,2.50
2023-08-31T03:34:57.304Z,3.20
2023-08-31T03:35:57.296Z,3.00
2023-08-31T03:36:57.301Z,3.10
2023-08-31T03:37:57.284Z,3.40
2023-08-31T03:38:57.279Z,3.40
2023-08-31T03:39:57.273Z,2.60
2023-08-31T03:40:57.278Z,2.50
2023-08-31T03:41:57.262Z,3.00
2023-08-31T03:42:57.257Z,2.80
2023-08-31T03:43:57.255Z,2.50
2023-08-31T03:44:57.244Z,2.70
2023-08-31T03:45:57.314Z,2.60
2023-08-31T03:46:57.241Z,2.60
2023-08-31T03:47:57.277Z,2.60
2023-08-31T03:48:57.221Z,3.20
2023-08-31T03:49:57.219Z,2.70
2023-08-31T03:50:57.219Z,3.00
2023-08-31T03:51:57.208Z,2.90
2023-08-31T03:52:57.204Z,2.70
2023-08-31T03:53:57.195Z,3.30
2023-08-31T03:54:57.205Z,2.90
2023-08-31T03:55:57.189Z,3.00
2023-08-31T03:56:57.176Z,3.60
2023-08-31T03:57:57.172Z,3.30
2023-08-31T03:58:57.176Z,3.20
2023-08-31T03:59:57.159Z,3.50
2023-08-31T04:00:57.164Z,3.50
2023-08-31T04:01:57.186Z,3.20
2023-08-31T04:02:58.904Z,4.30
2023-08-31T04:03:57.182Z,3.90
2023-08-31T04:04:57.131Z,4.40
2023-08-31T04:05:57.130Z,4.10
2023-08-31T04:06:57.119Z,4.40
2023-08-31T04:07:57.111Z,4.90
2023-08-31T04:08:57.107Z,5.10
2023-08-31T04:09:57.102Z,5.10
2023-08-31T04:10:57.094Z,4.80
2023-08-31T04:11:57.092Z,5.20
2023-08-31T04:12:57.090Z,5.70
2023-08-31T04:13:57.095Z,6.60
2023-08-31T04:14:57.070Z,5.40
2023-08-31T04:15:57.113Z,5.60
2023-08-31T04:16:57.065Z,5.60
2023-08-31T04:17:57.183Z,5.90
2023-08-31T04:18:57.048Z,5.90
2023-08-31T04:19:57.042Z,6.30
2023-08-31T04:20:57.049Z,6.30
2023-08-31T04:21:57.031Z,6.50
2023-08-31T04:22:57.048Z,6.90
2023-08-31T04:23:57.019Z,6.70
2023-08-31T04:24:57.014Z,6.90
2023-08-31T04:25:57.008Z,7.20
2023-08-31T04:26:57.014Z,7.20
2023-08-31T04:27:57.000Z,7.50
2023-08-31T04:28:57.078Z,8.00
2023-08-31T04:29:56.985Z,7.80
2023-08-31T04:30:56.985Z,8.00
2023-08-31T04:31:56.976Z,7.70
2023-08-31T04:32:57.000Z,8.70
2023-08-31T04:33:56.962Z,8.80
2023-08-31T04:34:57.814Z,8.80
2023-08-31T04:35:56.950Z,8.40
2023-08-31T04:36:56.954Z,8.20
2023-08-31T04:37:56.942Z,8.50
2023-08-31T04:38:56.934Z,9.50
2023-08-31T04:39:56.929Z,9.50
2023-08-31T04:40:56.923Z,10.00
2023-08-31T04:41:56.918Z,9.90
2023-08-31T04:42:56.909Z,10.50
2023-08-31T04:43:56.903Z,11.20
2023-08-31T04:44:56.902Z,12.00
2023-08-31T04:45:57.010Z,9.70
2023-08-31T04:46:56.890Z,10.20
2023-08-31T04:47:56.907Z,12.00
2023-08-31T04:48:56.882Z,12.70
2023-08-31T04:49:56.871Z,13.00
2023-08-31T04:50:56.870Z,12.50
2023-08-31T04:51:56.866Z,12.20
2023-08-31T04:52:56.858Z,13.40
2023-08-31T04:53:56.854Z,13.40
2023-08-31T04:54:56.847Z,16.30
2023-08-31T04:55:56.837Z,14.10
2023-08-31T04:56:57.018Z,14.20
2023-08-31T04:57:56.831Z,14.60
2023-08-31T04:58:56.822Z,14.30
2023-08-31T04:59:56.821Z,13.20
2023-08-31T05:00:56.850Z,12.60
2023-08-31T05:01:56.802Z,14.30
2023-08-31T05:02:56.870Z,13.90
2023-08-31T05:03:56.792Z,17.60
2023-08-31T05:04:56.789Z,16.20
2023-08-31T05:05:56.812Z,14.00
2023-08-31T05:06:56.772Z,15.30
2023-08-31T05:07:56.768Z,13.70
2023-08-31T05:08:56.766Z,13.50
2023-08-31T05:09:56.758Z,16.30
2023-08-31T05:10:56.750Z,15.00
2023-08-31T05:11:56.749Z,14.30
2023-08-31T05:12:56.742Z,13.50
2023-08-31T05:13:56.735Z,12.00
2023-08-31T05:14:56.730Z,12.70
2023-08-31T05:15:56.726Z,12.90
2023-08-31T05:16:56.927Z,14.20
2023-08-31T05:17:56.769Z,14.70
2023-08-31T05:18:56.707Z,13.30
2023-08-31T05:19:56.698Z,13.40
2023-08-31T05:20:56.696Z,14.00
2023-08-31T05:21:56.696Z,11.90
2023-08-31T05:22:56.686Z,11.50
2023-08-31T05:23:56.684Z,14.80
2023-08-31T05:24:56.674Z,13.60
2023-08-31T05:25:56.668Z,12.20
2023-08-31T05:26:56.663Z,12.30
2023-08-31T05:27:56.666Z,12.40
2023-08-31T05:28:56.666Z,12.50
2023-08-31T05:29:56.648Z,13.30
2023-08-31T05:30:56.680Z,11.70
2023-08-31T05:31:56.636Z,13.00
2023-08-31T05:32:56.684Z,13.60
2023-08-31T05:33:56.626Z,12.10
2023-08-31T05:34:56.614Z,11.40
2023-08-31T05:35:56.632Z,13.90
2023-08-31T05:36:56.612Z,13.20
2023-08-31T05:37:56.612Z,12.40
2023-08-31T05:38:56.600Z,12.50
2023-08-31T05:39:56.599Z,13.60
2023-08-31T05:40:56.586Z,12.60
2023-08-31T05:41:56.608Z,13.90
2023-08-31T05:42:56.575Z,11.70
2023-08-31T05:43:56.571Z,14.80
2023-08-31T05:44:56.571Z,13.90
2023-08-31T05:45:56.584Z,11.30
2023-08-31T05:46:56.556Z,12.80
2023-08-31T05:47:56.596Z,12.00
2023-08-31T05:48:56.569Z,12.20
2023-08-31T05:49:56.540Z,12.10
2023-08-31T05:50:56.534Z,12.40
2023-08-31T05:51:56.526Z,10.70
2023-08-31T05:52:56.540Z,11.80
2023-08-31T05:53:56.517Z,11.80
2023-08-31T05:54:56.511Z,10.60
2023-08-31T05:55:56.512Z,10.10
2023-08-31T05:56:56.514Z,10.90
2023-08-31T05:57:56.496Z,12.00
2023-08-31T05:58:56.489Z,12.00
2023-08-31T05:59:56.482Z,10.30
2023-08-31T06:00:56.481Z,13.90
2023-08-31T06:01:56.537Z,11.50
2023-08-31T06:02:56.620Z,10.90
2023-08-31T06:03:56.486Z,12.20
2023-08-31T06:04:56.460Z,11.50
2023-08-31T06:05:56.459Z,11.60
2023-08-31T06:06:56.470Z,11.10
2023-08-31T06:07:56.442Z,10.50
2023-08-31T06:08:56.437Z,10.50
2023-08-31T06:09:56.432Z,10.70
2023-08-31T06:10:56.440Z,11.30
2023-08-31T06:11:56.420Z,12.90
2023-08-31T06:12:56.414Z,10.40
2023-08-31T06:13:56.410Z,11.20
2023-08-31T06:14:56.403Z,9.50
2023-08-31T06:15:56.441Z,10.50
2023-08-31T06:16:56.395Z,10.30
2023-08-31T06:17:58.062Z,12.40
2023-08-31T06:18:56.384Z,11.40
2023-08-31T06:19:56.393Z,10.30
2023-08-31T06:20:56.374Z,9.80
2023-08-31T06:21:56.376Z,9.40
2023-08-31T06:22:56.364Z,9.80
2023-08-31T06:23:56.359Z,11.30
2023-08-31T06:24:56.364Z,9.50
2023-08-31T06:25:56.352Z,9.20
2023-08-31T06:26:56.342Z,8.30
2023-08-31T06:27:56.338Z,9.00
2023-08-31T06:28:56.336Z,9.40
2023-08-31T06:29:56.330Z,9.90
2023-08-31T06:30:56.324Z,8.40
2023-08-31T06:31:56.356Z,9.10
2023-08-31T06:32:56.347Z,8.90
2023-08-31T06:33:56.318Z,10.20
2023-08-31T06:34:56.301Z,8.60
2023-08-31T06:35:56.309Z,9.90
2023-08-31T06:36:56.296Z,8.30
2023-08-31T06:37:56.287Z,10.40
2023-08-31T06:38:56.284Z,9.90
2023-08-31T06:39:56.278Z,9.20
2023-08-31T06:40:56.273Z,9.10
2023-08-31T06:41:56.270Z,8.90
2023-08-31T06:42:56.265Z,9.10
2023-08-31T06:43:56.262Z,9.30
2023-08-31T06:44:56.253Z,10.00
2023-08-31T06:45:58.430Z,9.40
2023-08-31T06:46:56.268Z,9.40
2023-08-31T06:47:56.251Z,9.00
2023-08-31T06:48:56.233Z,9.50
2023-08-31T06:49:56.232Z,11.30
2023-08-31T06:50:56.224Z,9.20
2023-08-31T06:51:56.223Z,9.70
2023-08-31T06:52:56.214Z,7.90
2023-08-31T06:53:56.211Z,9.00
2023-08-31T06:54:56.206Z,9.30
2023-08-31T06:55:56.203Z,10.40
2023-08-31T06:56:56.196Z,8.50
2023-08-31T06:57:57.941Z,9.60
2023-08-31T06:58:56.185Z,8.00
2023-08-31T06:59:56.189Z,9.60
2023-08-31T07:00:56.175Z,10.90
2023-08-31T07:01:56.174Z,9.00
2023-08-31T07:02:56.354Z,10.80
2023-08-31T07:03:56.215Z,10.50
2023-08-31T07:04:56.160Z,8.70
2023-08-31T07:05:56.162Z,9.30
2023-08-31T07:06:56.167Z,8.90
2023-08-31T07:07:56.154Z,9.00
2023-08-31T07:08:56.152Z,8.20
2023-08-31T07:09:56.133Z,7.80
2023-08-31T07:10:56.132Z,8.50
2023-08-31T07:11:56.126Z,10.20
2023-08-31T07:12:56.123Z,8.50
2023-08-31T07:13:56.120Z,7.60
2023-08-31T07:14:56.117Z,8.20
2023-08-31T07:15:56.136Z,6.60
2023-08-31T07:16:56.105Z,8.10
2023-08-31T07:17:56.099Z,7.20
2023-08-31T07:18:56.145Z,7.50
2023-08-31T07:19:56.093Z,7.30
2023-08-31T07:20:56.130Z,7.30
2023-08-31T07:21:56.094Z,6.50
2023-08-31T07:22:56.110Z,6.40
2023-08-31T07:23:56.074Z,7.00
2023-08-31T07:24:56.129Z,8.20
2023-08-31T07:25:56.068Z,6.50
2023-08-31T07:26:56.064Z,7.10
2023-08-31T07:27:56.071Z,7.60
2023-08-31T07:28:56.072Z,7.50
2023-08-31T07:29:56.053Z,8.20
2023-08-31T07:30:56.064Z,5.80
2023-08-31T07:31:56.046Z,8.10
2023-08-31T07:32:56.144Z,6.40
2023-08-31T07:33:56.071Z,6.70
2023-08-31T07:34:56.031Z,7.30
2023-08-31T07:35:56.292Z,6.70
2023-08-31T07:36:56.028Z,6.60
2023-08-31T07:37:56.026Z,5.00
2023-08-31T07:38:56.027Z,5.70
2023-08-31T07:39:56.018Z,5.80
2023-08-31T07:40:56.012Z,5.40
2023-08-31T07:41:56.049Z,6.90
2023-08-31T07:42:56.024Z,6.80
2023-08-31T07:44:04.308Z,5.60
2023-08-31T07:44:55.995Z,6.30
2023-08-31T07:45:56.050Z,6.00
2023-08-31T07:46:56.058Z,6.10
2023-08-31T07:47:56.002Z,7.10
2023-08-31T07:48:55.982Z,6.10
2023-08-31T07:49:55.987Z,6.90
2023-08-31T07:50:55.972Z,6.60
2023-08-31T07:51:55.967Z,6.20
2023-08-31T07:52:55.964Z,5.80
2023-08-31T07:53:55.962Z,7.10
2023-08-31T07:54:55.957Z,6.10
2023-08-31T07:55:55.978Z,6.60
2023-08-31T07:56:55.977Z,6.30
2023-08-31T07:57:55.964Z,7.70
2023-08-31T07:58:55.941Z,8.00
2023-08-31T07:59:55.937Z,6.70
2023-08-31T08:00:56.077Z,6.70
2023-08-31T08:01:56.054Z,5.70
2023-08-31T08:02:55.986Z,5.70
2023-08-31T08:03:55.979Z,6.10
2023-08-31T08:04:55.920Z,7.00
2023-08-31T08:05:55.913Z,6.40
2023-08-31T08:06:55.921Z,7.30
2023-08-31T08:07:55.905Z,6.50
2023-08-31T08:08:55.904Z,6.40
2023-08-31T08:09:55.899Z,6.50
2023-08-31T08:10:55.908Z,5.40
2023-08-31T08:11:55.893Z,5.70
2023-08-31T08:12:55.888Z,6.10
2023-08-31T08:13:55.885Z,5.00
2023-08-31T08:14:55.890Z,5.50
2023-08-31T08:15:55.877Z,5.10
2023-08-31T08:16:55.892Z,5.00
2023-08-31T08:17:55.907Z,5.60
2023-08-31T08:18:55.871Z,3.60
2023-08-31T08:19:55.877Z,4.70
2023-08-31T08:20:55.862Z,4.60
2023-08-31T08:21:55.855Z,5.70
2023-08-31T08:22:55.853Z,6.20
2023-08-31T08:23:55.854Z,5.50
2023-08-31T08:24:55.846Z,4.80
2023-08-31T08:25:55.844Z,5.50
2023-08-31T08:26:55.844Z,3.50
2023-08-31T08:27:55.833Z,5.70
2023-08-31T08:28:55.913Z,4.50
2023-08-31T08:29:55.828Z,4.80
2023-08-31T08:30:55.864Z,5.70
2023-08-31T08:31:55.819Z,4.20
2023-08-31T08:32:55.849Z,4.40
2023-08-31T08:33:55.819Z,6.10
2023-08-31T08:34:55.814Z,4.00
2023-08-31T08:35:55.806Z,3.30
2023-08-31T08:36:55.802Z,4.70
2023-08-31T08:37:55.796Z,3.90
2023-08-31T08:38:55.856Z,3.40
2023-08-31T08:39:55.797Z,4.10
2023-08-31T08:40:55.839Z,3.60
2023-08-31T08:41:55.784Z,4.30
2023-08-31T08:42:55.792Z,3.50
2023-08-31T08:43:55.783Z,4.40
2023-08-31T08:44:55.782Z,5.10
2023-08-31T08:45:55.854Z,4.30
2023-08-31T08:46:55.766Z,4.70
2023-08-31T08:47:55.772Z,3.80
2023-08-31T08:48:55.762Z,5.10
2023-08-31T08:49:55.771Z,3.90
2023-08-31T08:50:55.762Z,5.10
2023-08-31T08:51:55.755Z,5.10
2023-08-31T08:52:55.747Z,5.00
2023-08-31T08:53:55.742Z,3.20
2023-08-31T08:54:55.745Z,5.60
2023-08-31T08:55:55.752Z,4.60
2023-08-31T08:56:55.734Z,4.40
2023-08-31T08:57:55.737Z,3.50
2023-08-31T08:58:55.725Z,3.70
2023-08-31T08:59:55.728Z,5.40
2023-08-31T09:00:55.742Z,3.00
2023-08-31T09:01:55.846Z,3.90
2023-08-31T09:02:55.789Z,3.90
2023-08-31T09:03:55.725Z,5.10
2023-08-31T09:04:55.852Z,2.80
2023-08-31T09:05:55.700Z,4.40
2023-08-31T09:06:55.703Z,3.30
2023-08-31T09:07:55.697Z,2.90
2023-08-31T09:08:55.713Z,4.10
2023-08-31T09:09:55.688Z,3.80
2023-08-31T09:10:55.699Z,3.40
2023-08-31T09:11:55.680Z,3.10
2023-08-31T09:12:55.678Z,3.20
2023-08-31T09:13:55.675Z,3.20
2023-08-31T09:14:55.670Z,3.50
2023-08-31T09:15:55.685Z,3.40
2023-08-31T09:16:55.813Z,3.30
2023-08-31T09:17:55.709Z,3.20
2023-08-31T09:18:55.829Z,2.80
2023-08-31T09:19:55.650Z,4.20
2023-08-31T09:20:55.650Z,3.70
2023-08-31T09:21:55.644Z,4.00
2023-08-31T09:22:55.641Z,3.30
2023-08-31T09:23:55.637Z,4.30
2023-08-31T09:24:55.636Z,4.30
2023-08-31T09:25:55.634Z,3.70
2023-08-31T09:26:55.627Z,3.40
2023-08-31T09:27:55.622Z,4.70
2023-08-31T09:28:55.624Z,3.20
2023-08-31T09:29:55.618Z,3.10
2023-08-31T09:30:55.611Z,4.70
2023-08-31T09:31:55.678Z,3.10
2023-08-31T09:32:55.685Z,3.60
2023-08-31T09:33:55.602Z,5.60
2023-08-31T09:35:06.520Z,5.00
2023-08-31T09:35:55.599Z,5.20
2023-08-31T09:36:55.592Z,3.40
2023-08-31T09:37:55.597Z,4.60
2023-08-31T09:38:55.583Z,4.80
2023-08-31T09:39:55.580Z,4.20
2023-08-31T09:40:55.579Z,3.70
2023-08-31T09:41:55.599Z,3.80
2023-08-31T09:42:55.574Z,4.40
2023-08-31T09:43:55.564Z,5.90
2023-08-31T09:44:55.569Z,3.80
2023-08-31T09:45:55.644Z,3.50
2023-08-31T09:46:55.558Z,2.80
2023-08-31T09:47:55.671Z,4.30
2023-08-31T09:48:55.566Z,3.80
2023-08-31T09:49:55.546Z,4.70
2023-08-31T09:50:55.541Z,3.10
2023-08-31T09:51:55.547Z,2.90
2023-08-31T09:52:55.535Z,3.70
2023-08-31T09:53:55.528Z,4.70
2023-08-31T09:54:55.523Z,3.20
2023-08-31T09:55:55.552Z,3.10
2023-08-31T09:56:55.598Z,3.70
2023-08-31T09:58:08.791Z,3.00
2023-08-31T09:58:55.519Z,3.30
2023-08-31T09:59:55.509Z,3.50
2023-08-31T10:00:55.582Z,3.70
2023-08-31T10:01:55.621Z,4.10
2023-08-31T10:02:55.614Z,3.70
2023-08-31T10:03:55.501Z,2.80
2023-08-31T10:04:55.575Z,4.50
2023-08-31T10:05:55.497Z,2.60
2023-08-31T10:06:55.482Z,2.90
2023-08-31T10:07:55.482Z,2.90
2023-08-31T10:08:55.519Z,3.00
2023-08-31T10:09:55.477Z,4.00
2023-08-31T10:10:55.475Z,3.40
2023-08-31T10:11:55.469Z,2.70
2023-08-31T10:12:55.465Z,4.50
2023-08-31T10:13:55.468Z,2.30
2023-08-31T10:14:55.460Z,3.20
2023-08-31T10:15:55.457Z,3.30
2023-08-31T10:16:55.532Z,3.80
2023-08-31T10:17:55.478Z,3.00
2023-08-31T10:18:55.450Z,3.20
2023-08-31T10:19:55.456Z,3.90
2023-08-31T10:20:55.449Z,3.20
2023-08-31T10:21:55.486Z,2.80
2023-08-31T10:22:55.438Z,2.80
2023-08-31T10:23:55.435Z,2.40
2023-08-31T10:24:55.440Z,3.80
2023-08-31T10:25:55.433Z,2.80
2023-08-31T10:26:55.427Z,2.30
2023-08-31T10:27:55.448Z,2.80
2023-08-31T10:28:55.427Z,4.60
2023-08-31T10:29:55.419Z,3.40
2023-08-31T10:30:55.506Z,3.70
2023-08-31T10:31:55.415Z,5.40
2023-08-31T10:32:55.447Z,4.70
2023-08-31T10:33:55.416Z,4.40
2023-08-31T10:34:55.405Z,5.00
2023-08-31T10:35:55.396Z,5.30
2023-08-31T10:37:04.723Z,4.40
2023-08-31T10:37:55.393Z,5.60
2023-08-31T10:38:55.391Z,2.90
2023-08-31T10:39:55.387Z,3.90
2023-08-31T10:40:55.383Z,3.30
2023-08-31T10:41:55.383Z,2.40
2023-08-31T10:42:55.383Z,3.90
2023-08-31T10:43:55.420Z,2.80
2023-08-31T10:44:55.376Z,3.20
2023-08-31T10:45:55.368Z,2.80
2023-08-31T10:46:55.428Z,3.20
2023-08-31T10:47:55.400Z,3.30
2023-08-31T10:48:55.366Z,4.80
2023-08-31T10:49:55.353Z,3.20
2023-08-31T10:50:55.345Z,3.70
2023-08-31T10:51:55.345Z,3.50
2023-08-31T10:52:55.357Z,3.70
2023-08-31T10:53:55.338Z,4.00
2023-08-31T10:54:55.338Z,3.40
2023-08-31T10:55:55.336Z,3.70
2023-08-31T10:56:55.357Z,4.60
2023-08-31T10:57:55.329Z,4.40
2023-08-31T10:58:55.332Z,5.20
2023-08-31T10:59:55.325Z,4.00
2023-08-31T11:00:55.318Z,3.70
2023-08-31T11:01:55.388Z,5.20
2023-08-31T11:02:55.359Z,3.30
2023-08-31T11:03:55.395Z,4.80
2023-08-31T11:04:56.689Z,4.50
2023-08-31T11:05:55.306Z,3.40
2023-08-31T11:06:55.298Z,4.10
2023-08-31T11:07:55.295Z,3.20
2023-08-31T11:08:55.296Z,3.00
2023-08-31T11:09:55.292Z,6.70
2023-08-31T11:10:55.288Z,3.00
2023-08-31T11:11:55.284Z,4.20
2023-08-31T11:12:55.303Z,3.60
2023-08-31T11:13:55.328Z,2.90
2023-08-31T11:14:55.274Z,3.00
2023-08-31T11:15:55.297Z,3.70
2023-08-31T11:16:55.270Z,3.00
2023-08-31T11:17:55.334Z,5.00
2023-08-31T11:18:55.262Z,3.40
2023-08-31T11:19:55.257Z,6.00
2023-08-31T11:20:55.255Z,3.40
2023-08-31T11:21:55.258Z,3.90
2023-08-31T11:22:55.320Z,4.60
2023-08-31T11:23:55.245Z,4.30
2023-08-31T11:24:55.242Z,3.40
2023-08-31T11:25:55.237Z,4.50
2023-08-31T11:26:55.239Z,4.30
2023-08-31T11:27:55.234Z,4.60
2023-08-31T11:28:55.231Z,3.60
2023-08-31T11:29:55.242Z,2.60
2023-08-31T11:30:55.229Z,3.30
2023-08-31T11:31:55.259Z,3.60
2023-08-31T11:32:55.242Z,4.20
2023-08-31T11:33:55.216Z,3.50
2023-08-31T11:34:55.214Z,3.70
2023-08-31T11:35:55.214Z,2.80
2023-08-31T11:36:55.218Z,3.50
2023-08-31T11:37:55.205Z,3.10
2023-08-31T11:38:55.203Z,4.40
2023-08-31T11:39:55.201Z,3.50
2023-08-31T11:40:55.197Z,3.20
2023-08-31T11:41:55.196Z,3.40
2023-08-31T11:42:55.197Z,2.80
2023-08-31T11:43:55.188Z,4.00
2023-08-31T11:44:55.187Z,4.10
2023-08-31T11:45:55.257Z,3.50
2023-08-31T11:46:55.183Z,4.10
2023-08-31T11:47:55.223Z,3.20
2023-08-31T11:48:55.175Z,3.30
2023-08-31T11:49:55.172Z,4.10
2023-08-31T11:50:55.177Z,4.80
2023-08-31T11:51:55.174Z,4.30
2023-08-31T11:52:55.164Z,3.60
2023-08-31T11:53:55.158Z,4.20
2023-08-31T11:54:55.155Z,4.40
2023-08-31T11:55:55.164Z,4.10
2023-08-31T11:56:55.175Z,4.60
2023-08-31T11:57:55.163Z,3.60
2023-08-31T11:59:04.586Z,4.20
2023-08-31T11:59:55.181Z,4.40
2023-08-31T12:00:55.144Z,3.00
2023-08-31T12:01:55.166Z,4.10
2023-08-31T12:02:55.160Z,3.80
2023-08-31T12:03:55.216Z,3.10
2023-08-31T12:04:55.169Z,3.30
2023-08-31T12:05:56.605Z,3.00
2023-08-31T12:06:55.116Z,2.90
2023-08-31T12:07:55.116Z,4.80
2023-08-31T12:08:55.114Z,3.30
2023-08-31T12:09:55.139Z,4.50
2023-08-31T12:10:55.106Z,3.40
2023-08-31T12:11:55.098Z,3.00
2023-08-31T12:12:55.187Z,3.50
2023-08-31T12:13:55.104Z,3.50
2023-08-31T12:14:55.098Z,3.60
2023-08-31T12:15:55.128Z,3.70
2023-08-31T12:16:55.094Z,2.20
2023-08-31T12:17:55.223Z,3.30
2023-08-31T12:18:55.086Z,4.60
2023-08-31T12:19:55.084Z,7.40
2023-08-31T12:20:55.101Z,5.00
2023-08-31T12:21:55.084Z,3.70
2023-08-31T12:22:55.075Z,5.00
2023-08-31T12:23:55.072Z,3.00
2023-08-31T12:24:55.069Z,2.90
2023-08-31T12:25:55.066Z,3.70
2023-08-31T12:26:55.073Z,6.60
2023-08-31T12:27:55.060Z,6.30
2023-08-31T12:28:55.057Z,5.80
2023-08-31T12:29:55.053Z,5.50
2023-08-31T12:30:55.047Z,6.60
2023-08-31T12:31:55.046Z,4.10
2023-08-31T12:32:55.150Z,4.50
2023-08-31T12:33:55.041Z,4.20
2023-08-31T12:34:55.036Z,4.40
2023-08-31T12:35:55.044Z,3.20
2023-08-31T12:36:55.043Z,4.10
2023-08-31T12:37:55.027Z,3.20
2023-08-31T12:38:55.025Z,2.60
2023-08-31T12:39:55.028Z,2.40
2023-08-31T12:40:55.017Z,2.70
2023-08-31T12:41:58.909Z,2.20
2023-08-31T12:42:55.014Z,3.10
2023-08-31T12:43:55.035Z,2.50
2023-08-31T12:44:55.095Z,3.80
2023-08-31T12:45:55.027Z,2.60
2023-08-31T12:46:55.003Z,4.10
2023-08-31T12:47:55.024Z,3.30
2023-08-31T12:48:55.037Z,2.00
2023-08-31T12:49:55.001Z,2.20
2023-08-31T12:50:55.000Z,2.60
2023-08-31T12:51:54.988Z,3.00
2023-08-31T12:52:54.981Z,2.70
2023-08-31T12:53:54.980Z,4.10
2023-08-31T12:54:54.981Z,2.70
2023-08-31T12:55:54.985Z,3.10
2023-08-31T12:56:54.976Z,2.50
2023-08-31T12:57:54.975Z,3.00
2023-08-31T12:58:54.968Z,2.80
2023-08-31T12:59:54.973Z,3.70
2023-08-31T13:00:55.070Z,4.10
2023-08-31T13:01:55.060Z,2.60
2023-08-31T13:02:55.060Z,2.70
2023-08-31T13:03:54.955Z,3.20
2023-08-31T13:04:54.954Z,2.90
2023-08-31T13:05:54.949Z,2.60
2023-08-31T13:06:54.944Z,3.20
2023-08-31T13:07:54.938Z,3.10
2023-08-31T13:08:54.931Z,2.60
2023-08-31T13:09:54.937Z,3.50
2023-08-31T13:10:54.960Z,2.50
2023-08-31T13:11:54.932Z,2.60
2023-08-31T13:12:54.932Z,3.10
2023-08-31T13:13:54.925Z,2.00
2023-08-31T13:14:54.921Z,1.70